Time;durP1;ratioP1;P1;durP2;ratioP2;P2;SDS_P1;SDS_P2;PMS_P1;PMS_P2;Temp;Humidity;BMP_temperature;BMP_pressure;BME280_temperature;BME280_humidity;BME280_pressure;Samples;Min_cycle;Max_cycle;Signal;HPM_P1;HPM_P2
2022/12/30 00:01:24;;;;;;;10.50;2.72;;;10.20;66.30;;;;;;5012615;28;20150;-54
2022/12/30 00:03:51;;;;;;;6.70;3.03;;;10.20;66.30;;;;;;4997462;28;20038;-54
2022/12/30 00:06:21;;;;;;;6.90;2.72;;;10.20;66.30;;;;;;5002662;28;20497;-52
2022/12/30 00:08:54;;;;;;;9.45;2.92;;;10.20;66.30;;;;;;5009550;28;20048;-50
2022/12/30 00:11:33;;;;;;;11.27;2.72;;;10.10;66.30;;;;;;5010862;28;20101;-50
2022/12/30 00:34:14;;;;;;;8.18;2.78;;;10.10;66.20;;;;;;5003562;28;20132;-50
2022/12/30 00:36:41;;;;;;;7.32;2.20;;;10.10;66.20;;;;;;5011605;28;20046;-50
2022/12/30 00:39:08;;;;;;;8.07;2.70;;;10.00;66.20;;;;;;5011844;28;20121;-51
2022/12/30 00:44:21;;;;;;;6.22;2.15;;;10.00;66.40;;;;;;5008292;28;20500;-51
2022/12/30 00:46:48;;;;;;;7.63;2.60;;;10.00;66.30;;;;;;5011693;28;20448;-50
2022/12/30 00:57:36;;;;;;;7.95;2.17;;;9.90;66.40;;;;;;5011745;28;20042;-51
2022/12/30 01:00:08;;;;;;;6.25;2.40;;;9.90;66.50;;;;;;5007277;28;20082;-50
2022/12/30 01:02:35;;;;;;;5.72;3.28;;;9.90;66.50;;;;;;5010056;28;20045;-51
2022/12/30 01:05:02;;;;;;;7.30;2.47;;;9.80;66.50;;;;;;5011608;28;20621;-53
2022/12/30 01:07:29;;;;;;;10.63;2.90;;;9.80;66.60;;;;;;5011475;28;20064;-54
2022/12/30 01:09:57;;;;;;;6.78;2.42;;;9.80;66.70;;;;;;5012063;28;20117;-52
2022/12/30 01:12:28;;;;;;;7.38;2.60;;;9.70;66.70;;;;;;5009090;28;20052;-51
2022/12/30 01:14:58;;;;;;;5.43;2.40;;;9.70;66.80;;;;;;5004918;28;20128;-51
2022/12/30 01:17:36;;;;;;;10.65;2.92;;;9.70;66.80;;;;;;5016556;28;20116;-50
2022/12/30 01:20:04;;;;;;;9.63;2.92;;;9.70;66.80;;;;;;5006299;28;20481;-50
2022/12/30 01:22:39;;;;;;;8.75;2.30;;;9.70;66.90;;;;;;5013993;28;20508;-51
2022/12/30 01:25:06;;;;;;;8.65;3.28;;;9.60;67.00;;;;;;5010564;28;20041;-50
2022/12/30 01:27:32;;;;;;;4.78;2.75;;;9.60;67.00;;;;;;4994597;28;20069;-51
2022/12/30 01:30:02;;;;;;;7.75;2.88;;;9.60;67.00;;;;;;5008527;28;20548;-49
2022/12/30 01:32:30;;;;;;;8.02;2.40;;;9.60;67.10;;;;;;5011537;28;20129;-49
2022/12/30 01:34:57;;;;;;;6.80;2.58;;;9.60;67.10;;;;;;5002513;28;20038;-53
2022/12/30 01:37:26;;;;;;;9.05;3.05;;;9.50;67.20;;;;;;5010053;28;20052;-50
2022/12/30 01:39:53;;;;;;;11.70;3.30;;;9.50;67.20;;;;;;5007812;28;20038;-49
2022/12/30 01:42:28;;;;;;;12.02;3.10;;;9.50;67.20;;;;;;5010978;28;20040;-50
2022/12/30 01:44:57;;;;;;;8.40;2.50;;;9.50;67.20;;;;;;5010400;28;20046;-50
2022/12/30 01:47:48;;;;;;;10.55;3.00;;;9.50;67.20;;;;;;5011266;28;20084;-50
2022/12/30 01:50:24;;;;;;;5.40;2.17;;;9.50;67.40;;;;;;5012151;28;20601;-51
2022/12/30 01:53:17;;;;;;;7.70;2.60;;;9.40;67.20;;;;;;5015347;28;20062;-51
2022/12/30 01:55:49;;;;;;;6.03;1.80;;;9.40;68.00;;;;;;5012498;28;20085;-51
2022/12/30 01:58:29;;;;;;;7.57;2.63;;;9.40;67.30;;;;;;5016555;28;20092;-50
2022/12/30 02:01:05;;;;;;;7.32;2.88;;;9.40;67.40;;;;;;5018269;28;20044;-50
2022/12/30 02:03:36;;;;;;;8.18;2.58;;;9.40;67.40;;;;;;5021166;28;20046;-50
2022/12/30 02:06:04;;;;;;;7.35;2.33;;;9.30;67.40;;;;;;5009537;28;20045;-50
2022/12/30 02:08:36;;;;;;;7.78;2.60;;;9.30;67.40;;;;;;5010115;28;20089;-53
2022/12/30 02:11:05;;;;;;;10.48;2.80;;;9.30;67.50;;;;;;5010155;28;20034;-49
2022/12/30 02:13:33;;;;;;;8.75;2.50;;;9.30;67.50;;;;;;5011128;28;20085;-50
2022/12/30 02:16:12;;;;;;;;;;;9.30;67.60;;;;;;5003128;28;20049;-50
2022/12/30 02:18:55;;;;;;;7.50;2.45;;;9.30;67.70;;;;;;5007977;28;20073;-53
2022/12/30 02:21:47;;;;;;;8.70;2.90;;;9.30;67.50;;;;;;5019034;28;20034;-51
2022/12/30 02:24:42;;;;;;;7.60;2.97;;;9.20;67.60;;;;;;5000790;28;20135;-50
2022/12/30 02:27:14;;;;;;;6.45;2.47;;;9.30;67.60;;;;;;5007765;28;20048;-50
2022/12/30 02:30:02;;;;;;;13.10;3.05;;;9.20;67.60;;;;;;5009761;28;20456;-50
2022/12/30 02:32:51;;;;;;;8.63;2.10;;;9.20;67.70;;;;;;5010005;28;20512;-49
2022/12/30 02:35:39;;;;;;;10.90;3.38;;;9.20;68.00;;;;;;5005741;28;20572;-50
2022/12/30 02:38:22;;;;;;;7.40;2.63;;;9.20;68.60;;;;;;5007504;28;20052;-50
2022/12/30 02:46:50;;;;;;;7.30;2.65;;;9.10;67.80;;;;;;5006188;28;20046;-50
2022/12/30 02:49:19;;;;;;;7.82;2.15;;;9.10;68.00;;;;;;5010228;28;20048;-50
2022/12/30 02:54:35;;;;;;;5.22;2.25;;;9.00;68.00;;;;;;4996436;28;20421;-49
2022/12/30 02:57:02;;;;;;;10.73;2.70;;;9.00;68.10;;;;;;5008583;28;20038;-50
2022/12/30 03:05:46;;;;;;;5.95;2.45;;;9.00;68.50;;;;;;5006444;28;20049;-51
2022/12/30 03:08:28;;;;;;;7.95;2.20;;;9.00;68.30;;;;;;5009711;28;20034;-52
2022/12/30 03:11:12;;;;;;;10.82;2.78;;;9.00;68.40;;;;;;5008575;28;20092;-49
2022/12/30 03:13:52;;;;;;;7.88;2.38;;;9.00;68.40;;;;;;4985595;28;20050;-54
2022/12/30 03:16:33;;;;;;;6.93;2.30;;;8.90;68.40;;;;;;5003462;28;20038;-50
2022/12/30 03:19:07;;;;;;;8.93;2.50;;;8.90;68.70;;;;;;5009010;28;20050;-51
2022/12/30 03:21:42;;;;;;;7.95;2.42;;;8.90;68.40;;;;;;5014160;28;20129;-50
2022/12/30 03:27:13;;;;;;;11.23;2.72;;;8.80;68.70;;;;;;5001295;28;20041;-51
2022/12/30 03:30:01;;;;;;;7.82;2.78;;;8.80;68.90;;;;;;5005339;28;20046;-50
2022/12/30 03:32:31;;;;;;;9.40;2.70;;;8.90;69.20;;;;;;5006011;28;20409;-50
2022/12/30 03:34:59;;;;;;;8.23;2.38;;;8.90;68.90;;;;;;5008308;28;20045;-51
2022/12/30 03:37:44;;;;;;;14.43;2.75;;;8.80;68.90;;;;;;5009502;28;20045;-49
2022/12/30 03:40:22;;;;;;;8.05;2.13;;;8.80;69.20;;;;;;5003357;28;20069;-53
2022/12/30 03:42:52;;;;;;;6.18;2.33;;;8.80;69.10;;;;;;5009024;28;20579;-51
2022/12/30 03:45:19;;;;;;;8.93;2.25;;;8.80;69.20;;;;;;5008578;28;20120;-50
2022/12/30 03:47:45;;;;;;;9.07;2.53;;;8.80;69.20;;;;;;5009034;28;20046;-51
2022/12/30 03:50:13;;;;;;;7.53;2.45;;;8.80;69.40;;;;;;5004977;28;20405;-50
2022/12/30 03:52:39;;;;;;;4.70;2.72;;;8.80;69.40;;;;;;5007805;28;20140;-51
2022/12/30 03:55:06;;;;;;;6.15;2.28;;;8.80;69.50;;;;;;4998283;28;20805;-52
2022/12/30 03:57:36;;;;;;;12.32;2.78;;;8.80;69.60;;;;;;5013761;28;20042;-50
2022/12/30 04:00:11;;;;;;;8.83;2.67;;;8.80;69.60;;;;;;5012059;28;20120;-52
2022/12/30 04:02:42;;;;;;;9.45;2.63;;;8.80;69.60;;;;;;5012929;28;20073;-52
2022/12/30 04:05:10;;;;;;;9.13;2.58;;;8.80;69.60;;;;;;5008764;28;20042;-51
2022/12/30 04:07:39;;;;;;;6.90;1.85;;;8.80;69.70;;;;;;5018230;28;20049;-50
2022/12/30 04:10:06;;;;;;;5.45;2.40;;;8.80;69.70;;;;;;5008207;28;20041;-50
2022/12/30 04:12:33;;;;;;;5.70;2.63;;;8.70;69.70;;;;;;5012322;28;20116;-51
2022/12/30 04:14:59;;;;;;;11.73;2.60;;;8.70;69.70;;;;;;5012201;28;20042;-51
2022/12/30 04:17:29;;;;;;;8.10;1.95;;;8.70;69.60;;;;;;5011647;28;20045;-50
2022/12/30 04:19:56;;;;;;;8.48;2.65;;;8.80;69.70;;;;;;5009276;28;20034;-50
2022/12/30 04:22:23;;;;;;;9.20;2.25;;;8.70;69.70;;;;;;5024129;28;20494;-49
2022/12/30 04:24:53;;;;;;;5.32;2.17;;;8.70;69.70;;;;;;5012014;28;20448;-51
2022/12/30 04:27:24;;;;;;;5.05;2.13;;;8.70;69.80;;;;;;5005847;28;20989;-50
2022/12/30 04:29:50;;;;;;;11.50;2.60;;;8.70;69.80;;;;;;5012156;28;20144;-50
2022/12/30 04:32:17;;;;;;;8.27;2.67;;;8.60;69.80;;;;;;5012616;28;20128;-51
2022/12/30 04:34:46;;;;;;;8.35;2.67;;;8.60;69.90;;;;;;5012118;28;20054;-54
2022/12/30 04:37:13;;;;;;;6.15;2.33;;;8.60;70.00;;;;;;5009856;28;20128;-50
2022/12/30 04:39:41;;;;;;;9.07;2.83;;;8.60;70.10;;;;;;5009802;28;20045;-50
2022/12/30 04:42:11;;;;;;;9.60;3.28;;;8.60;70.20;;;;;;5012439;28;20041;-53
2022/12/30 04:44:38;;;;;;;6.00;3.03;;;8.60;70.30;;;;;;5008722;28;20121;-50
2022/12/30 04:47:04;;;;;;;8.48;2.70;;;8.60;70.40;;;;;;5007441;28;20038;-49
2022/12/30 04:49:33;;;;;;;8.52;2.90;;;8.60;70.40;;;;;;5011405;28;20088;-50
2022/12/30 04:52:01;;;;;;;5.03;2.17;;;8.60;70.50;;;;;;5024643;28;20096;-50
2022/12/30 04:54:28;;;;;;;10.20;3.20;;;8.60;70.60;;;;;;5007045;28;20042;-50
2022/12/30 04:56:55;;;;;;;8.13;2.63;;;8.60;70.60;;;;;;5009959;28;20042;-50
2022/12/30 04:59:21;;;;;;;10.57;3.08;;;8.60;70.60;;;;;;5011357;28;20050;-52
2022/12/30 05:01:51;;;;;;;6.53;2.90;;;8.60;70.60;;;;;;4994387;28;20077;-50
2022/12/30 05:04:23;;;;;;;8.85;2.40;;;8.60;70.70;;;;;;5004219;28;20045;-50
2022/12/30 05:06:55;;;;;;;7.28;1.90;;;8.60;70.80;;;;;;5010158;28;20088;-49
2022/12/30 05:09:21;;;;;;;6.28;1.75;;;8.60;70.80;;;;;;5012774;28;20081;-50
2022/12/30 05:11:48;;;;;;;10.82;2.22;;;8.60;70.70;;;;;;5010363;28;20042;-51
2022/12/30 05:14:15;;;;;;;8.80;2.70;;;8.60;70.80;;;;;;5013622;28;20042;-50
2022/12/30 05:16:43;;;;;;;9.10;2.53;;;8.60;70.90;;;;;;5011156;28;20508;-51
2022/12/30 05:19:18;;;;;;;7.00;2.53;;;8.60;71.00;;;;;;5017039;28;20041;-49
2022/12/30 05:21:47;;;;;;;11.18;2.75;;;8.60;71.00;;;;;;5013746;28;20088;-52
2022/12/30 05:27:05;;;;;;;7.63;2.30;;;8.70;70.90;;;;;;5011826;28;20037;-49
2022/12/30 05:29:31;;;;;;;8.23;2.42;;;8.60;71.00;;;;;;5012217;28;20046;-50
2022/12/30 05:32:00;;;;;;;4.30;2.00;;;8.60;70.70;;;;;;5011845;28;20446;-50
2022/12/30 05:34:29;;;;;;;5.60;2.30;;;8.70;70.70;;;;;;5007441;28;20053;-53
2022/12/30 05:36:59;;;;;;;7.93;1.95;;;8.70;70.70;;;;;;5011525;28;20041;-49
2022/12/30 05:39:31;;;;;;;8.82;2.40;;;8.70;70.70;;;;;;5012021;28;20038;-50
2022/12/30 05:42:03;;;;;;;6.82;2.50;;;8.70;70.70;;;;;;5006289;28;20050;-50
2022/12/30 05:44:31;;;;;;;7.28;2.25;;;8.70;70.70;;;;;;5011171;28;20046;-52
2022/12/30 05:47:00;;;;;;;6.38;2.55;;;8.70;70.70;;;;;;5015841;28;20050;-50
2022/12/30 05:49:29;;;;;;;8.05;2.80;;;8.70;70.70;;;;;;5011951;28;20121;-50
2022/12/30 05:51:57;;;;;;;9.57;2.33;;;8.70;70.50;;;;;;5015215;28;20043;-50
2022/12/30 05:54:26;;;;;;;8.35;2.70;;;8.70;70.50;;;;;;5007386;28;20041;-54
2022/12/30 05:56:53;;;;;;;3.47;1.75;;;8.70;70.50;;;;;;5009251;28;20049;-52
2022/12/30 05:59:19;;;;;;;8.02;2.53;;;8.60;70.40;;;;;;5015922;28;20112;-49
2022/12/30 06:01:46;;;;;;;5.05;2.05;;;8.70;70.50;;;;;;5006736;28;20390;-50
2022/12/30 06:04:15;;;;;;;7.22;2.00;;;8.60;70.40;;;;;;5011316;28;20049;-53
2022/12/30 06:06:45;;;;;;;6.55;1.83;;;8.70;70.40;;;;;;5011023;28;20048;-53
2022/12/30 06:09:14;;;;;;;4.53;1.53;;;8.70;70.40;;;;;;5003965;28;20041;-50
2022/12/30 06:11:40;;;;;;;7.43;2.38;;;8.70;70.40;;;;;;5006974;28;20460;-50
2022/12/30 06:14:15;;;;;;;6.30;2.10;;;8.70;70.30;;;;;;5015970;28;20699;-50
2022/12/30 06:16:43;;;;;;;6.68;1.77;;;8.70;70.40;;;;;;5002697;28;20046;-50
2022/12/30 06:19:10;;;;;;;6.47;1.98;;;8.70;70.30;;;;;;5008170;28;20405;-54
2022/12/30 06:21:37;;;;;;;4.68;1.83;;;8.60;70.30;;;;;;5013035;28;20052;-50
2022/12/30 06:24:06;;;;;;;9.98;2.50;;;8.60;70.30;;;;;;5010966;28;20038;-50
2022/12/30 06:26:37;;;;;;;7.05;1.60;;;8.60;70.30;;;;;;5010860;28;20045;-50
2022/12/30 06:29:04;;;;;;;7.20;2.40;;;8.60;70.40;;;;;;5006284;28;20038;-50
2022/12/30 06:31:30;;;;;;;4.80;1.65;;;8.60;70.30;;;;;;5010267;28;20048;-52
2022/12/30 06:33:57;;;;;;;5.78;2.03;;;8.60;70.40;;;;;;5011242;28;20412;-50
2022/12/30 06:36:26;;;;;;;7.22;1.73;;;8.60;70.40;;;;;;5011363;28;20485;-49
2022/12/30 06:38:53;;;;;;;3.00;1.67;;;8.60;70.40;;;;;;5004113;28;20041;-50
2022/12/30 06:41:19;;;;;;;8.00;2.13;;;8.60;70.40;;;;;;5010467;28;20033;-53
2022/12/30 06:43:51;;;;;;;7.70;1.85;;;8.60;70.40;;;;;;5010488;28;20069;-54
2022/12/30 06:46:18;;;;;;;6.05;1.60;;;8.60;70.50;;;;;;5009106;28;20123;-51
2022/12/30 06:48:53;;;;;;;6.63;1.55;;;8.60;70.50;;;;;;5005680;28;20374;-50
2022/12/30 06:51:19;;;;;;;7.05;1.85;;;8.60;70.50;;;;;;5011413;28;20480;-51
2022/12/30 06:53:48;;;;;;;6.75;2.05;;;8.60;70.50;;;;;;5004862;28;20080;-54
2022/12/30 06:56:16;;;;;;;5.07;1.50;;;8.60;70.60;;;;;;5002213;28;20046;-51
2022/12/30 06:58:43;;;;;;;6.18;2.08;;;8.60;70.60;;;;;;5005747;28;20424;-52
2022/12/30 07:01:10;;;;;;;4.22;1.98;;;8.60;70.60;;;;;;5009568;28;20056;-51
2022/12/30 07:03:41;;;;;;;3.33;1.70;;;8.60;70.60;;;;;;5009356;28;20436;-54
2022/12/30 07:06:14;;;;;;;6.43;1.58;;;8.60;70.50;;;;;;5005851;28;20142;-50
2022/12/30 07:08:43;;;;;;;9.40;2.05;;;8.60;70.50;;;;;;5009430;28;20046;-54
2022/12/30 07:11:12;;;;;;;7.40;2.17;;;8.60;70.50;;;;;;5009260;28;20501;-50
2022/12/30 07:13:41;;;;;;;4.03;1.20;;;8.60;70.40;;;;;;5008666;28;20437;-52
2022/12/30 07:16:10;;;;;;;6.13;1.58;;;8.60;70.50;;;;;;5005640;28;20424;-51
2022/12/30 07:18:39;;;;;;;6.03;1.73;;;8.60;70.50;;;;;;5009428;28;20050;-51
2022/12/30 07:21:08;;;;;;;3.63;1.23;;;8.60;70.50;;;;;;5008960;28;20137;-53
2022/12/30 07:23:37;;;;;;;6.37;1.47;;;8.60;70.50;;;;;;5008824;28;20464;-52
2022/12/30 07:26:06;;;;;;;4.97;1.58;;;8.60;70.50;;;;;;4984405;28;20332;-50
2022/12/30 07:28:37;;;;;;;3.72;1.73;;;8.60;70.50;;;;;;5008878;28;20057;-51
2022/12/30 07:31:06;;;;;;;3.17;1.92;;;8.60;70.50;;;;;;5008553;28;20038;-50
2022/12/30 07:33:35;;;;;;;5.20;1.58;;;8.60;70.60;;;;;;5008466;28;20132;-51
2022/12/30 07:36:01;;;;;;;6.30;1.48;;;8.60;70.70;;;;;;5005163;28;20050;-50
2022/12/30 07:38:30;;;;;;;7.43;1.98;;;8.70;70.70;;;;;;5009455;28;20136;-54
2022/12/30 07:40:57;;;;;;;2.28;0.90;;;8.60;70.70;;;;;;4998662;28;20121;-50
2022/12/30 07:43:26;;;;;;;2.80;1.08;;;8.70;70.80;;;;;;4997740;28;20414;-51
2022/12/30 07:45:53;;;;;;;3.75;1.20;;;8.70;70.80;;;;;;5019535;28;20542;-52
2022/12/30 07:48:19;;;;;;;2.83;1.52;;;8.70;70.80;;;;;;5011729;28;20042;-51
2022/12/30 07:50:49;;;;;;;3.00;1.25;;;8.70;70.90;;;;;;5008415;28;20053;-53
2022/12/30 07:53:16;;;;;;;3.75;1.30;;;8.70;71.00;;;;;;5003163;28;20048;-52
2022/12/30 07:55:43;;;;;;;2.75;1.23;;;8.70;71.00;;;;;;5005839;28;20130;-52
2022/12/30 07:58:12;;;;;;;4.47;1.75;;;8.70;70.90;;;;;;5002636;28;20046;-50
2022/12/30 08:00:38;;;;;;;3.63;1.00;;;8.80;70.90;;;;;;5009723;28;20060;-51
2022/12/30 08:03:06;;;;;;;4.82;1.70;;;8.80;70.90;;;;;;5002687;28;20048;-52
2022/12/30 08:05:32;;;;;;;2.72;1.15;;;8.80;70.90;;;;;;5008255;28;20046;-50
2022/12/30 08:07:59;;;;;;;2.47;0.77;;;8.90;70.90;;;;;;5002661;28;20046;-53
2022/12/30 08:10:26;;;;;;;2.83;1.00;;;8.90;70.90;;;;;;5004450;28;20038;-51
2022/12/30 08:12:52;;;;;;;3.00;1.13;;;8.90;70.90;;;;;;5004994;28;20565;-51
2022/12/30 08:15:19;;;;;;;2.67;1.23;;;8.90;70.80;;;;;;5014234;28;20037;-50
2022/12/30 08:17:48;;;;;;;3.28;1.25;;;8.90;70.80;;;;;;4999325;28;20048;-51
2022/12/30 08:20:15;;;;;;;5.43;1.58;;;9.00;70.80;;;;;;5007727;28;20100;-51
2022/12/30 08:22:42;;;;;;;4.47;1.20;;;9.00;70.80;;;;;;5002783;28;20042;-51
2022/12/30 08:25:08;;;;;;;3.00;1.35;;;9.10;70.70;;;;;;5013341;28;20040;-53
2022/12/30 08:27:35;;;;;;;1.60;1.00;;;9.10;70.70;;;;;;5001074;28;20034;-50
2022/12/30 08:30:02;;;;;;;2.45;1.23;;;9.10;70.70;;;;;;5007517;28;20108;-54
2022/12/30 08:32:29;;;;;;;3.30;1.60;;;9.10;70.60;;;;;;5005514;28;20117;-51
2022/12/30 08:34:56;;;;;;;2.25;1.30;;;9.20;70.60;;;;;;5013906;28;20049;-54
2022/12/30 08:37:23;;;;;;;3.00;1.05;;;9.20;70.60;;;;;;5009073;28;20052;-50
2022/12/30 08:39:49;;;;;;;5.63;0.98;;;9.20;70.50;;;;;;5005022;28;20153;-54
2022/12/30 08:42:16;;;;;;;2.22;1.10;;;9.30;70.60;;;;;;5010714;28;20046;-54
2022/12/30 08:44:43;;;;;;;6.30;1.48;;;9.30;70.60;;;;;;5012487;28;20137;-53
2022/12/30 08:47:09;;;;;;;2.80;1.10;;;9.30;70.50;;;;;;5021023;28;20046;-54
2022/12/30 08:49:36;;;;;;;3.65;1.30;;;9.30;70.40;;;;;;5008591;28;20042;-55
2022/12/30 08:52:03;;;;;;;2.88;0.93;;;9.40;71.10;;;;;;5008475;28;20497;-53
2022/12/30 08:54:29;;;;;;;3.90;1.25;;;9.40;70.40;;;;;;5014409;28;20046;-54
2022/12/30 08:56:56;;;;;;;5.63;1.27;;;9.40;70.40;;;;;;5014908;28;20081;-53
2022/12/30 08:59:23;;;;;;;3.17;1.58;;;9.50;70.40;;;;;;5016405;28;20034;-52
2022/12/30 09:01:49;;;;;;;4.68;1.33;;;9.60;70.40;;;;;;5008366;28;20141;-54
2022/12/30 09:04:17;;;;;;;2.25;1.30;;;9.60;70.40;;;;;;5011472;28;20577;-54
2022/12/30 09:06:44;;;;;;;1.95;1.02;;;9.70;70.30;;;;;;5011989;28;20042;-54
2022/12/30 09:09:13;;;;;;;4.55;1.45;;;9.70;70.20;;;;;;4998621;28;20088;-54
2022/12/30 09:11:41;;;;;;;4.60;1.35;;;9.80;70.20;;;;;;5008365;28;20038;-53
2022/12/30 09:14:10;;;;;;;0.60;0.60;;;9.80;70.00;;;;;;5008884;28;20905;-50
2022/12/30 09:16:37;;;;;;;1.58;1.17;;;9.90;70.00;;;;;;5002516;28;20040;-54
2022/12/30 09:19:06;;;;;;;3.28;1.10;;;9.90;69.90;;;;;;5020387;28;20068;-53
2022/12/30 09:21:33;;;;;;;2.30;1.27;;;9.90;69.80;;;;;;5010341;28;20136;-51
2022/12/30 09:24:00;;;;;;;1.70;1.17;;;10.00;69.80;;;;;;5005859;28;20046;-54
2022/12/30 09:26:28;;;;;;;3.17;1.30;;;10.00;69.70;;;;;;5011607;28;20060;-51
2022/12/30 09:28:55;;;;;;;3.00;1.50;;;10.10;69.60;;;;;;5003568;28;20044;-53
2022/12/30 09:31:22;;;;;;;5.13;1.60;;;10.10;69.50;;;;;;5016644;28;20516;-52
2022/12/30 09:33:49;;;;;;;4.15;1.33;;;10.20;69.50;;;;;;5011574;28;20053;-52
2022/12/30 09:36:15;;;;;;;4.53;1.20;;;10.20;69.50;;;;;;5007825;28;20037;-53
2022/12/30 09:38:43;;;;;;;3.05;1.40;;;10.30;69.50;;;;;;5006862;28;20042;-53
2022/12/30 09:43:14;;;;;;;4.25;1.35;;;10.30;69.50;;;;;;5014884;28;20104;-53
2022/12/30 09:44:48;;;;;;;3.60;1.02;;;10.40;69.50;;;;;;5002719;28;20046;-53
2022/12/30 09:47:31;;;;;;;4.00;1.30;;;10.50;69.50;;;;;;4996978;28;20488;-53
2022/12/30 09:50:21;;;;;;;3.60;1.40;;;10.50;69.30;;;;;;5003292;28;20045;-54
2022/12/30 09:52:58;;;;;;;2.55;1.08;;;10.60;69.40;;;;;;5010566;28;20041;-54
2022/12/30 09:55:32;;;;;;;5.25;1.15;;;10.60;69.30;;;;;;5015736;28;20100;-54
2022/12/30 09:58:07;;;;;;;3.58;1.00;;;10.70;69.20;;;;;;5005723;28;20137;-52
2022/12/30 10:00:37;;;;;;;2.67;1.10;;;10.70;69.00;;;;;;5013337;28;20033;-51
2022/12/30 10:03:17;;;;;;;2.72;0.95;;;10.80;69.00;;;;;;5015627;28;20049;-51
2022/12/30 10:06:22;;;;;;;3.20;1.70;;;10.90;68.90;;;;;;5009546;28;20034;-54
2022/12/30 10:09:32;;;;;;;1.63;0.80;;;11.00;68.80;;;;;;5007761;28;20049;-55
2022/12/30 10:12:17;;;;;;;1.38;0.82;;;11.10;68.50;;;;;;5011278;28;20613;-53
2022/12/30 10:14:59;;;;;;;4.00;1.10;;;11.10;68.50;;;;;;5006761;28;20049;-53
2022/12/30 10:18:06;;;;;;;2.38;1.08;;;11.20;68.40;;;;;;5007462;28;20382;-54
2022/12/30 10:20:55;;;;;;;1.60;0.80;;;11.30;68.20;;;;;;5015480;28;20052;-54
2022/12/30 10:23:28;;;;;;;2.40;0.80;;;11.30;68.20;;;;;;5008987;28;20034;-50
2022/12/30 10:26:08;;;;;;;4.93;1.27;;;11.40;68.20;;;;;;5008521;28;20092;-52
2022/12/30 10:28:43;;;;;;;5.97;1.45;;;11.40;68.00;;;;;;5010079;28;20558;-50
2022/12/30 10:31:18;;;;;;;3.03;1.13;;;11.50;67.90;;;;;;5016168;28;20125;-52
2022/12/30 10:33:49;;;;;;;2.35;1.15;;;11.50;67.90;;;;;;5007206;28;20077;-54
2022/12/30 10:36:22;;;;;;;2.47;1.08;;;11.50;67.80;;;;;;5006814;28;20069;-54
2022/12/30 10:39:05;;;;;;;3.83;0.82;;;11.60;67.70;;;;;;5012388;28;20045;-54
2022/12/30 10:41:59;;;;;;;2.40;1.08;;;11.60;67.60;;;;;;5007572;28;20045;-54
2022/12/30 10:44:32;;;;;;;5.53;1.15;;;11.70;67.40;;;;;;5008248;28;20464;-55
2022/12/30 10:47:32;;;;;;;2.00;0.88;;;11.70;67.30;;;;;;5018119;28;20137;-54
2022/12/30 10:50:27;;;;;;;1.23;0.70;;;11.70;67.10;;;;;;5013279;28;20041;-53
2022/12/30 10:52:53;;;;;;;2.92;1.00;;;11.70;66.80;;;;;;5002645;28;20072;-54
2022/12/30 10:55:32;;;;;;;2.75;0.77;;;11.70;67.10;;;;;;5004615;28;20037;-55
2022/12/30 10:58:02;;;;;;;3.28;1.00;;;11.70;67.10;;;;;;5008940;28;20128;-54
2022/12/30 11:00:32;;;;;;;3.05;1.35;;;11.70;66.90;;;;;;5013368;28;20041;-52
2022/12/30 11:03:11;;;;;;;3.75;1.13;;;11.70;66.80;;;;;;5007122;28;20386;-55
2022/12/30 11:05:38;;;;;;;3.13;1.20;;;11.70;66.70;;;;;;5007530;28;20054;-54
2022/12/30 11:08:22;;;;;;;3.80;1.20;;;11.70;66.70;;;;;;5010748;28;20042;-54
2022/12/30 11:11:08;;;;;;;2.72;0.77;;;11.70;66.40;;;;;;5015088;28;20053;-52
2022/12/30 11:16:26;;;;;;;5.07;0.93;;;11.70;66.60;;;;;;5010897;28;20060;-52
2022/12/30 11:18:56;;;;;;;3.58;1.00;;;11.80;66.40;;;;;;5015509;28;20073;-54
2022/12/30 11:21:25;;;;;;;2.08;1.10;;;11.80;66.40;;;;;;5006742;28;20077;-52
2022/12/30 11:23:54;;;;;;;5.30;1.40;;;11.80;66.40;;;;;;5009798;28;20041;-54
2022/12/30 11:26:24;;;;;;;1.17;0.85;;;11.80;66.30;;;;;;5015339;28;20045;-50
2022/12/30 11:28:54;;;;;;;4.70;0.85;;;11.80;66.30;;;;;;5010618;28;20042;-53
2022/12/30 11:31:29;;;;;;;1.42;0.75;;;11.80;66.10;;;;;;5007592;28;20042;-51
2022/12/30 11:34:00;;;;;;;1.42;1.02;;;11.90;66.30;;;;;;5009051;28;20046;-52
2022/12/30 11:36:26;;;;;;;1.13;0.68;;;11.80;66.10;;;;;;5005857;28;20038;-50
2022/12/30 11:39:08;;;;;;;3.17;1.20;;;11.90;66.20;;;;;;5004984;28;20457;-54
2022/12/30 11:41:48;;;;;;;3.72;0.85;;;11.80;66.00;;;;;;5005545;28;20612;-55
2022/12/30 11:44:19;;;;;;;2.83;0.85;;;11.90;65.70;;;;;;5010115;28;20029;-51
2022/12/30 11:47:01;;;;;;;2.05;1.38;;;11.90;65.90;;;;;;5014788;28;20420;-50
2022/12/30 11:49:30;;;;;;;3.90;0.90;;;11.90;65.90;;;;;;4989530;28;20061;-53
2022/12/30 11:52:18;;;;;;;3.47;1.10;;;11.90;65.90;;;;;;5004858;28;20038;-53
2022/12/30 11:54:57;;;;;;;2.55;1.10;;;11.90;65.90;;;;;;5010328;28;20443;-50
2022/12/30 11:57:38;;;;;;;2.13;1.30;;;11.90;65.80;;;;;;5003312;28;20069;-54
2022/12/30 12:00:31;;;;;;;5.22;1.63;;;11.90;65.50;;;;;;5007294;28;20042;-54
2022/12/30 12:03:01;;;;;;;2.65;1.17;;;11.90;65.30;;;;;;5027422;23;20064;-52
2022/12/30 12:05:39;;;;;;;3.03;1.20;;;11.90;65.60;;;;;;5026138;28;20043;-51
2022/12/30 12:08:22;;;;;;;4.78;0.85;;;11.90;65.60;;;;;;5029404;28;20048;-53
2022/12/30 12:10:56;;;;;;;2.78;1.13;;;11.90;65.30;;;;;;5036909;28;20128;-50
2022/12/30 12:13:31;;;;;;;3.47;1.00;;;12.00;65.60;;;;;;5027267;28;20076;-54
2022/12/30 12:15:59;;;;;;;2.63;0.93;;;12.00;65.60;;;;;;5027575;28;20504;-54
2022/12/30 12:18:42;;;;;;;3.17;0.82;;;12.00;65.50;;;;;;5029943;28;20691;-49
2022/12/30 12:21:29;;;;;;;3.75;1.10;;;12.10;65.50;;;;;;5029217;28;20041;-49
2022/12/30 12:24:16;;;;;;;2.47;1.10;;;12.10;65.20;;;;;;5030094;28;20543;-52
2022/12/30 12:27:00;;;;;;;2.10;0.82;;;12.10;65.20;;;;;;5025497;28;20046;-53
2022/12/30 12:29:28;;;;;;;2.03;0.82;;;12.10;65.30;;;;;;5031223;28;20065;-54
2022/12/30 12:32:07;;;;;;;1.55;0.93;;;12.10;65.50;;;;;;5035778;28;20065;-50
2022/12/30 12:35:22;;;;;;;2.53;0.80;;;12.20;65.30;;;;;;5014239;28;20377;-49
2022/12/30 12:38:33;;;;;;;3.90;0.70;;;12.20;65.30;;;;;;5024612;28;20060;-51
2022/12/30 12:41:11;;;;;;;1.60;0.80;;;12.20;65.00;;;;;;5036558;28;20049;-49
2022/12/30 12:43:44;;;;;;;1.90;0.95;;;12.20;65.30;;;;;;5029732;28;20049;-51
2022/12/30 12:46:24;;;;;;;1.35;0.60;;;12.20;65.40;;;;;;5036770;28;20038;-52
2022/12/30 12:48:54;;;;;;;2.88;1.05;;;12.30;65.70;;;;;;5032036;28;20464;-54
2022/12/30 12:52:23;;;;;;;2.20;0.85;;;12.30;65.70;;;;;;5030182;28;20500;-49
2022/12/30 12:55:19;;;;;;;3.15;1.23;;;12.30;65.70;;;;;;4983070;28;20061;-50
2022/12/30 12:58:07;;;;;;;1.98;0.80;;;12.30;66.00;;;;;;5030032;28;20557;-52
2022/12/30 13:01:04;;;;;;;1.20;0.88;;;12.40;66.00;;;;;;5025807;28;20274;-53
2022/12/30 13:03:34;;;;;;;3.55;0.75;;;12.40;66.30;;;;;;5022865;28;20140;-52
2022/12/30 13:06:33;;;;;;;3.17;1.00;;;12.40;66.40;;;;;;5028440;28;20156;-49
2022/12/30 13:09:17;;;;;;;1.48;0.50;;;12.40;66.70;;;;;;5031654;28;20046;-49
2022/12/30 13:12:06;;;;;;;2.15;0.73;;;12.40;66.80;;;;;;5030661;28;20072;-58
2022/12/30 13:14:38;;;;;;;3.47;0.88;;;12.40;67.30;;;;;;5015258;28;20068;-52
2022/12/30 13:17:23;;;;;;;2.00;1.00;;;12.40;67.30;;;;;;5031677;28;20064;-51
2022/12/30 13:19:57;;;;;;;5.47;1.08;;;12.40;68.00;;;;;;5031371;28;20045;-53
2022/12/30 13:22:34;;;;;;;5.95;1.08;;;12.40;68.10;;;;;;5028693;28;20045;-53
2022/12/30 13:25:22;;;;;;;1.95;0.90;;;12.40;68.20;;;;;;5033364;28;20125;-49
2022/12/30 13:27:54;;;;;;;3.78;1.35;;;12.40;68.40;;;;;;5020679;28;20505;-53
2022/12/30 13:30:22;;;;;;;2.85;0.80;;;12.40;68.70;;;;;;5012526;28;20037;-50
2022/12/30 13:33:11;;;;;;;3.45;0.90;;;12.40;68.80;;;;;;5029500;28;20041;-54
2022/12/30 13:36:06;;;;;;;1.52;0.90;;;12.50;69.60;;;;;;5030765;28;20043;-50
2022/12/30 13:38:36;;;;;;;2.17;1.08;;;12.50;69.60;;;;;;5027457;28;20120;-51
2022/12/30 13:41:20;;;;;;;3.08;1.40;;;12.50;69.10;;;;;;5029173;28;20148;-53
2022/12/30 13:44:02;;;;;;;2.67;1.00;;;12.40;69.70;;;;;;5030935;28;20037;-53
2022/12/30 13:46:31;;;;;;;3.42;1.10;;;12.50;70.00;;;;;;5030280;28;20505;-54
2022/12/30 13:49:05;;;;;;;2.17;1.20;;;12.50;69.60;;;;;;5030548;28;20045;-54
2022/12/30 13:51:32;;;;;;;2.60;0.75;;;12.40;69.90;;;;;;5022087;28;20038;-51
2022/12/30 13:54:08;;;;;;;4.43;1.17;;;12.40;69.90;;;;;;5030854;28;20092;-55
2022/12/30 13:56:42;;;;;;;2.58;1.30;;;12.40;70.30;;;;;;5027360;28;20144;-53
2022/12/30 13:59:27;;;;;;;1.88;1.15;;;12.50;70.30;;;;;;5030669;28;20400;-53
2022/12/30 14:02:16;;;;;;;1.30;1.10;;;12.40;70.40;;;;;;5010291;28;20054;-50
2022/12/30 14:04:56;;;;;;;2.13;1.13;;;12.40;70.50;;;;;;5027109;28;20798;-53
2022/12/30 14:07:38;;;;;;;1.63;1.27;;;12.40;70.40;;;;;;5026182;28;20042;-51
2022/12/30 14:10:38;;;;;;;3.70;1.90;;;12.40;70.90;;;;;;5027970;28;20152;-54
2022/12/30 14:13:15;;;;;;;3.08;1.25;;;12.40;71.10;;;;;;5025158;28;20076;-50
2022/12/30 14:15:42;;;;;;;1.92;1.00;;;12.40;70.80;;;;;;5018346;28;20124;-54
2022/12/30 14:18:42;;;;;;;1.92;0.80;;;12.40;70.60;;;;;;5028290;28;20037;-50
2022/12/30 14:21:15;;;;;;;2.75;1.10;;;12.40;71.60;;;;;;5029808;28;20076;-49